Terminal Aerodrome Forecast
Issued by NWS Wilmington, OH

Current Version | Previous Version | Text Only | Print | Product List | Glossary Off
Versions: 1 2 3 4 5 6 7 8 9 10 11 12 13 14 15 16

000
FTUS41 KILN 180500
TAFDAY
TAF
KDAY 180538Z 1806/1906 20004KT P6SM BKN200
     FM181300 23005KT P6SM SCT060 OVC150
     FM181800 29008KT P6SM BKN050
     FM182100 31008KT P6SM OVC060
     FM190300 01008KT P6SM SCT060=

USA.gov is the U.S. government's official web portal to all federal, state and local government web resources and services.